createdAt,value
2022-09-13T00:00:09.864Z,2.80
2022-09-13T00:02:37.391Z,2.93
2022-09-13T00:05:05.265Z,3.30
2022-09-13T00:07:32.819Z,3.30
2022-09-13T00:10:00.373Z,3.10
2022-09-13T00:12:27.923Z,3.20
2022-09-13T00:14:55.425Z,3.10
2022-09-13T00:17:24.314Z,3.00
2022-09-13T00:19:51.871Z,3.07
2022-09-13T00:22:19.590Z,2.93
2022-09-13T00:24:47.152Z,2.93
2022-09-13T00:27:14.692Z,2.47
2022-09-13T00:29:42.275Z,2.63
2022-09-13T00:32:09.886Z,2.70
2022-09-13T00:34:38.822Z,2.90
2022-09-13T00:37:06.388Z,2.93
2022-09-13T00:39:33.972Z,2.90
2022-09-13T00:42:01.648Z,2.80
2022-09-13T00:44:55.004Z,2.80
2022-09-13T00:47:26.697Z,3.23
2022-09-13T00:49:58.308Z,3.50
2022-09-13T00:52:28.512Z,3.37
2022-09-13T00:55:00.683Z,3.60
2022-09-13T00:57:28.729Z,3.77
2022-09-13T01:00:00.174Z,3.70
2022-09-13T01:02:28.531Z,3.77
2022-09-13T01:04:57.577Z,4.17
2022-09-13T01:07:25.214Z,4.80
2022-09-13T01:09:53.259Z,5.30
2022-09-13T01:12:28.141Z,5.27
2022-09-13T01:14:57.034Z,5.17
2022-09-13T01:17:24.558Z,5.33
2022-09-13T01:19:52.177Z,5.37
2022-09-13T01:22:37.166Z,5.50
2022-09-13T01:25:19.116Z,5.47
2022-09-13T01:28:04.515Z,5.80
2022-09-13T01:30:36.757Z,5.33
2022-09-13T01:33:17.110Z,4.87
2022-09-13T01:36:24.043Z,5.03
2022-09-13T01:38:58.040Z,4.53
2022-09-13T01:41:37.924Z,5.23
2022-09-13T01:44:13.746Z,5.30
2022-09-13T01:46:49.646Z,5.33
2022-09-13T01:49:23.317Z,5.47
2022-09-13T01:51:56.039Z,5.70
2022-09-13T01:54:32.140Z,5.47
2022-09-13T01:57:03.276Z,5.53
2022-09-13T01:59:38.810Z,5.50
2022-09-13T02:02:10.390Z,5.83
2022-09-13T02:04:42.089Z,5.60
2022-09-13T02:07:13.364Z,6.00
2022-09-13T02:09:44.020Z,5.90
2022-09-13T02:12:15.975Z,5.90
2022-09-13T02:14:45.612Z,5.10
2022-09-13T02:17:17.415Z,5.90
2022-09-13T02:19:49.870Z,5.23
2022-09-13T02:22:21.831Z,5.13
2022-09-13T02:24:58.318Z,5.47
2022-09-13T02:27:28.061Z,5.60
2022-09-13T02:30:00.712Z,5.83
2022-09-13T02:32:33.214Z,5.43
2022-09-13T02:35:03.118Z,5.50
2022-09-13T02:37:32.409Z,4.77
2022-09-13T02:40:03.996Z,4.70
2022-09-13T02:42:36.389Z,4.10
2022-09-13T02:45:04.508Z,4.53
2022-09-13T02:47:42.284Z,4.17
2022-09-13T02:50:22.714Z,4.33
2022-09-13T02:52:55.152Z,4.27
2022-09-13T02:55:26.677Z,4.33
2022-09-13T02:58:01.796Z,3.70
2022-09-13T03:00:29.990Z,4.13
2022-09-13T03:03:02.370Z,4.30
2022-09-13T03:05:29.928Z,4.20
2022-09-13T03:07:57.830Z,3.90
2022-09-13T03:10:27.544Z,3.53
2022-09-13T03:13:15.784Z,3.90
2022-09-13T03:15:54.091Z,3.80
2022-09-13T03:18:49.677Z,3.83
2022-09-13T03:21:32.461Z,3.03
2022-09-13T03:24:09.090Z,3.20
2022-09-13T03:26:46.347Z,3.50
2022-09-13T03:29:24.906Z,3.17
2022-09-13T03:32:00.708Z,3.43
2022-09-13T03:34:34.794Z,3.87
2022-09-13T03:37:06.934Z,3.47
2022-09-13T03:39:40.841Z,3.60
2022-09-13T03:42:14.179Z,3.20
2022-09-13T03:44:44.482Z,3.87
2022-09-13T03:47:12.351Z,3.70
2022-09-13T03:49:41.606Z,3.63
2022-09-13T03:52:09.538Z,3.40
2022-09-13T03:54:38.691Z,3.47
2022-09-13T03:57:17.148Z,3.50
2022-09-13T03:59:47.820Z,3.93
2022-09-13T04:02:16.399Z,3.80
2022-09-13T04:04:45.981Z,3.60
2022-09-13T04:07:16.198Z,4.30
2022-09-13T04:09:43.811Z,4.33
2022-09-13T04:12:11.442Z,4.13
2022-09-13T04:14:39.020Z,3.87
2022-09-13T04:17:07.368Z,3.97
2022-09-13T04:19:35.076Z,3.73
2022-09-13T04:22:04.246Z,3.87
2022-09-13T04:24:32.171Z,3.73
2022-09-13T04:27:00.182Z,3.47
2022-09-13T04:29:27.901Z,4.13
2022-09-13T04:31:56.180Z,3.97
2022-09-13T04:34:24.400Z,3.67
2022-09-13T04:36:53.429Z,4.30
2022-09-13T04:39:23.685Z,4.13
2022-09-13T04:41:51.931Z,3.73
2022-09-13T04:44:20.601Z,3.93
2022-09-13T04:46:49.294Z,4.03
2022-09-13T04:49:17.353Z,4.57
2022-09-13T04:51:45.130Z,4.40
2022-09-13T04:54:15.980Z,4.10
2022-09-13T04:56:45.440Z,4.37
2022-09-13T04:59:13.720Z,4.20
2022-09-13T05:01:41.692Z,4.67
2022-09-13T05:04:10.848Z,5.30
2022-09-13T05:06:38.545Z,4.27
2022-09-13T05:09:06.718Z,4.57
2022-09-13T05:11:34.494Z,4.43
2022-09-13T05:14:03.991Z,3.77
2022-09-13T05:16:33.477Z,4.33
2022-09-13T05:19:01.623Z,4.57
2022-09-13T05:21:29.724Z,4.00
2022-09-13T05:23:57.938Z,4.07
2022-09-13T05:26:27.037Z,4.50
2022-09-13T05:28:54.654Z,4.67
2022-09-13T05:31:25.935Z,3.97
2022-09-13T05:33:55.208Z,4.30
2022-09-13T05:36:22.879Z,3.93
2022-09-13T05:39:01.647Z,4.97
2022-09-13T05:41:37.889Z,4.50
2022-09-13T05:44:12.667Z,4.60
2022-09-13T05:46:42.769Z,3.60
2022-09-13T05:49:10.311Z,4.10
2022-09-13T05:51:37.868Z,4.47
2022-09-13T05:54:05.616Z,4.03
2022-09-13T05:56:33.410Z,3.80
2022-09-13T05:59:00.967Z,4.03
2022-09-13T06:01:29.544Z,3.90
2022-09-13T06:03:59.559Z,3.97
2022-09-13T06:06:27.633Z,4.30
2022-09-13T06:08:56.005Z,4.70
2022-09-13T06:11:24.314Z,5.30
2022-09-13T06:13:51.906Z,4.67
2022-09-13T06:16:19.870Z,5.30
2022-09-13T06:18:47.578Z,4.93
2022-09-13T06:21:18.495Z,5.50
2022-09-13T06:23:46.174Z,5.47
2022-09-13T06:26:15.258Z,5.60
2022-09-13T06:28:43.279Z,5.47
2022-09-13T06:31:12.365Z,5.27
2022-09-13T06:33:41.271Z,5.93
2022-09-13T06:36:10.556Z,5.27
2022-09-13T06:38:40.109Z,5.43
2022-09-13T06:41:09.605Z,4.97
2022-09-13T06:43:38.054Z,4.17
2022-09-13T06:46:07.510Z,4.67
2022-09-13T06:48:36.256Z,4.40
2022-09-13T06:51:06.117Z,4.13
2022-09-13T06:53:35.132Z,4.00
2022-09-13T06:56:06.594Z,3.47
2022-09-13T06:58:35.095Z,4.03
2022-09-13T07:01:11.532Z,3.87
2022-09-13T07:03:40.528Z,3.90
2022-09-13T07:06:12.688Z,3.73
2022-09-13T07:08:41.290Z,3.47
2022-09-13T07:11:10.541Z,4.00
2022-09-13T07:13:38.465Z,3.83
2022-09-13T07:16:07.944Z,4.07
2022-09-13T07:18:35.622Z,3.33
2022-09-13T07:21:04.581Z,3.80
2022-09-13T07:23:32.757Z,4.20
2022-09-13T07:26:04.450Z,5.37
2022-09-13T07:28:35.615Z,5.40
2022-09-13T07:31:08.040Z,6.67
2022-09-13T07:33:35.800Z,7.17
2022-09-13T07:36:06.427Z,6.37
2022-09-13T07:38:35.352Z,6.60
2022-09-13T07:41:05.091Z,6.30
2022-09-13T07:43:34.918Z,6.43
2022-09-13T07:46:03.939Z,6.80
2022-09-13T07:48:33.909Z,6.00
2022-09-13T07:51:03.155Z,6.47
2022-09-13T07:53:30.988Z,6.40
2022-09-13T07:56:03.324Z,5.90
2022-09-13T07:58:30.879Z,5.20
2022-09-13T08:01:06.710Z,5.73
2022-09-13T08:03:34.871Z,6.10
2022-09-13T08:06:03.052Z,5.23
2022-09-13T08:08:31.443Z,5.23
2022-09-13T08:10:59.281Z,5.77
2022-09-13T08:13:27.199Z,5.63
2022-09-13T08:15:54.790Z,4.57
2022-09-13T08:18:23.731Z,5.47
2022-09-13T08:20:51.274Z,5.17
2022-09-13T08:23:18.781Z,4.80
2022-09-13T08:25:46.361Z,5.20
2022-09-13T08:28:16.689Z,4.87
2022-09-13T08:30:44.846Z,5.17
2022-09-13T08:33:12.870Z,5.43
2022-09-13T08:35:42.172Z,5.53
2022-09-13T08:38:09.752Z,5.30
2022-09-13T08:40:41.882Z,5.17
2022-09-13T08:43:16.103Z,4.37
2022-09-13T08:45:43.741Z,4.60
2022-09-13T08:48:14.925Z,4.70
2022-09-13T08:50:45.040Z,5.20
2022-09-13T08:53:19.079Z,4.93
2022-09-13T08:55:52.302Z,4.90
2022-09-13T08:58:50.064Z,5.17
2022-09-13T09:01:25.044Z,5.00
2022-09-13T09:03:59.325Z,5.10
2022-09-13T09:06:29.230Z,5.07
2022-09-13T09:09:01.125Z,5.17
2022-09-13T09:11:33.156Z,5.80
2022-09-13T09:14:06.024Z,5.60
2022-09-13T09:16:37.747Z,5.47
2022-09-13T09:19:11.895Z,5.20
2022-09-13T09:21:41.660Z,5.40
2022-09-13T09:24:13.949Z,4.33
2022-09-13T09:26:41.517Z,4.70
2022-09-13T09:29:19.760Z,4.60
2022-09-13T09:31:59.140Z,4.20
2022-09-13T09:34:42.451Z,4.40
2022-09-13T09:37:18.020Z,4.23
2022-09-13T09:39:45.697Z,4.50
2022-09-13T09:42:17.144Z,4.63
2022-09-13T09:44:46.321Z,3.87
2022-09-13T09:47:17.007Z,4.40
2022-09-13T09:50:04.815Z,3.63
2022-09-13T09:52:38.061Z,3.77
2022-09-13T09:55:16.331Z,3.90
2022-09-13T09:57:56.312Z,3.80
2022-09-13T10:00:25.692Z,3.70
2022-09-13T10:02:55.388Z,4.07
2022-09-13T10:05:26.186Z,3.97
2022-09-13T10:07:58.335Z,3.93
2022-09-13T10:10:36.956Z,3.60
2022-09-13T10:13:06.500Z,3.43
2022-09-13T10:15:35.493Z,3.40
2022-09-13T10:18:26.692Z,3.77
2022-09-13T10:21:03.724Z,3.47
2022-09-13T10:23:34.340Z,3.77
2022-09-13T10:26:05.845Z,4.20
2022-09-13T10:28:35.369Z,4.03
2022-09-13T10:31:06.240Z,4.23
2022-09-13T10:33:35.121Z,4.40
2022-09-13T10:36:05.615Z,4.20
2022-09-13T10:38:36.884Z,3.90
2022-09-13T10:41:06.695Z,4.00
2022-09-13T10:43:35.102Z,3.63
2022-09-13T10:46:05.180Z,3.80
2022-09-13T10:48:45.902Z,3.23
2022-09-13T10:51:22.686Z,3.50
2022-09-13T10:53:51.586Z,3.10
2022-09-13T10:56:24.209Z,3.23
2022-09-13T10:58:51.798Z,3.50
2022-09-13T11:01:41.998Z,3.70
2022-09-13T11:04:39.517Z,3.50
2022-09-13T11:07:21.267Z,3.73
2022-09-13T11:09:54.021Z,3.80
2022-09-13T11:12:26.584Z,3.60
2022-09-13T11:15:02.879Z,3.77
2022-09-13T11:17:44.956Z,4.07
2022-09-13T11:20:22.363Z,3.47
2022-09-13T11:23:17.167Z,3.63
2022-09-13T11:25:55.203Z,3.63
2022-09-13T11:28:27.564Z,3.40
2022-09-13T11:31:11.459Z,3.80
2022-09-13T11:33:49.716Z,3.37
2022-09-13T11:36:41.607Z,4.00
2022-09-13T11:39:16.779Z,3.80
2022-09-13T11:41:54.308Z,4.20
2022-09-13T11:44:55.321Z,4.10
2022-09-13T11:47:32.487Z,4.10
2022-09-13T11:50:08.241Z,3.17
2022-09-13T11:52:48.754Z,4.23
2022-09-13T11:55:18.784Z,3.80
2022-09-13T11:57:50.848Z,4.23
2022-09-13T12:00:22.844Z,4.50
2022-09-13T12:02:57.747Z,3.97
2022-09-13T12:05:28.951Z,4.87
2022-09-13T12:07:59.147Z,5.03
2022-09-13T12:10:30.001Z,5.47
2022-09-13T12:13:01.423Z,4.90
2022-09-13T12:15:35.632Z,4.40
2022-09-13T12:18:06.909Z,4.70
2022-09-13T12:20:35.686Z,4.67
2022-09-13T12:23:06.195Z,4.67
2022-09-13T12:25:39.364Z,4.13
2022-09-13T12:28:16.527Z,4.27
2022-09-13T12:30:48.302Z,4.50
2022-09-13T12:33:16.784Z,3.97
2022-09-13T12:35:51.704Z,4.53
2022-09-13T12:38:37.283Z,4.20
2022-09-13T12:41:12.924Z,4.30
2022-09-13T12:43:53.851Z,3.87
2022-09-13T12:46:57.220Z,4.70
2022-09-13T12:49:34.643Z,3.60
2022-09-13T12:52:11.415Z,3.70
2022-09-13T12:55:45.789Z,3.40
2022-09-13T12:58:46.587Z,3.40
2022-09-13T13:01:17.034Z,3.60
2022-09-13T13:03:50.129Z,3.43
2022-09-13T13:06:26.671Z,3.80
2022-09-13T13:08:56.335Z,3.97
2022-09-13T13:11:25.486Z,4.17
2022-09-13T13:13:57.918Z,4.10
2022-09-13T13:16:30.152Z,4.10
2022-09-13T13:18:58.812Z,4.67
2022-09-13T13:21:39.061Z,5.00
2022-09-13T13:24:45.005Z,4.63
2022-09-13T13:27:38.249Z,4.70
2022-09-13T13:30:56.261Z,4.77
2022-09-13T13:33:28.365Z,5.17
2022-09-13T13:35:56.307Z,4.60
2022-09-13T13:38:49.417Z,4.50
2022-09-13T13:41:44.744Z,4.83
2022-09-13T13:44:45.768Z,4.40
2022-09-13T13:47:42.446Z,4.63
2022-09-13T13:50:16.768Z,4.93
2022-09-13T13:52:55.316Z,4.60
2022-09-13T13:55:40.659Z,4.47
2022-09-13T13:58:31.656Z,4.90
2022-09-13T14:01:01.209Z,4.07
2022-09-13T14:03:59.128Z,4.60
2022-09-13T14:06:32.482Z,4.60
2022-09-13T14:09:06.404Z,4.13
2022-09-13T14:11:44.197Z,4.80
2022-09-13T14:14:28.840Z,4.83
2022-09-13T14:17:05.924Z,4.40
2022-09-13T14:19:35.591Z,4.57
2022-09-13T14:22:15.251Z,4.83
2022-09-13T14:24:46.195Z,4.30
2022-09-13T14:27:17.498Z,4.53
2022-09-13T14:29:50.589Z,5.07
2022-09-13T14:32:21.835Z,4.60
2022-09-13T14:34:55.623Z,4.60
2022-09-13T14:37:28.406Z,4.70
2022-09-13T14:39:57.697Z,4.57
2022-09-13T14:42:25.874Z,5.10
2022-09-13T14:44:53.936Z,4.67
2022-09-13T14:47:27.482Z,5.13
2022-09-13T14:50:00.584Z,4.53
2022-09-13T14:52:31.649Z,4.77
2022-09-13T14:55:04.141Z,5.50
2022-09-13T14:57:34.682Z,4.67
2022-09-13T15:00:05.416Z,5.30
2022-09-13T15:02:36.789Z,4.70
2022-09-13T15:05:08.959Z,5.50
2022-09-13T15:07:40.058Z,5.50
2022-09-13T15:10:11.486Z,5.27
2022-09-13T15:12:40.197Z,5.00
2022-09-13T15:15:33.526Z,5.13
2022-09-13T15:18:03.247Z,6.07
2022-09-13T15:20:31.902Z,5.40
2022-09-13T15:23:00.951Z,5.10
2022-09-13T15:25:31.849Z,5.70
2022-09-13T15:28:00.105Z,5.40
2022-09-13T15:30:29.829Z,5.67
2022-09-13T15:33:24.338Z,5.10
2022-09-13T15:35:52.610Z,5.10
2022-09-13T15:38:30.834Z,5.03
2022-09-13T15:41:01.632Z,5.17
2022-09-13T15:43:29.356Z,4.90
2022-09-13T15:45:58.736Z,4.80
2022-09-13T15:48:29.745Z,5.70
2022-09-13T15:51:07.492Z,4.93
2022-09-13T15:53:36.887Z,5.27
2022-09-13T15:56:05.368Z,4.83
2022-09-13T15:58:33.526Z,4.67
2022-09-13T16:01:01.269Z,4.73
2022-09-13T16:03:29.369Z,4.10
2022-09-13T16:05:57.413Z,4.60
2022-09-13T16:08:25.516Z,4.20
2022-09-13T16:10:54.477Z,4.43
2022-09-13T16:13:22.022Z,4.10
2022-09-13T16:15:49.767Z,4.23
2022-09-13T16:18:17.878Z,4.40
2022-09-13T16:20:46.087Z,4.00
2022-09-13T16:23:13.630Z,4.07
2022-09-13T16:25:41.302Z,4.47
2022-09-13T16:28:17.273Z,4.43
2022-09-13T16:30:45.162Z,3.83
2022-09-13T16:33:12.740Z,4.40
2022-09-13T16:35:40.394Z,4.37
2022-09-13T16:38:08.314Z,3.80
2022-09-13T16:40:36.080Z,4.50
2022-09-13T16:43:03.833Z,4.80
2022-09-13T16:45:32.740Z,4.00
2022-09-13T16:48:00.393Z,4.23
2022-09-13T16:50:29.379Z,4.20
2022-09-13T16:53:00.095Z,4.80
2022-09-13T16:55:27.949Z,4.53
2022-09-13T16:57:55.665Z,4.53
2022-09-13T17:00:24.531Z,4.43
2022-09-13T17:02:53.549Z,4.27
2022-09-13T17:05:21.284Z,4.47
2022-09-13T17:07:48.869Z,4.47
2022-09-13T17:10:16.477Z,4.10
2022-09-13T17:12:44.036Z,4.50
2022-09-13T17:15:12.012Z,4.70
2022-09-13T17:17:39.558Z,4.50
2022-09-13T17:20:11.930Z,4.37
2022-09-13T17:22:39.924Z,4.53
2022-09-13T17:25:08.788Z,3.80
2022-09-13T17:27:36.463Z,4.67
2022-09-13T17:30:06.641Z,4.00
2022-09-13T17:32:34.197Z,4.20
2022-09-13T17:35:01.731Z,4.30
2022-09-13T17:37:31.087Z,4.17
2022-09-13T17:39:58.752Z,4.03
2022-09-13T17:42:26.400Z,3.97
2022-09-13T17:44:53.956Z,4.90
2022-09-13T17:47:21.628Z,4.77
2022-09-13T17:49:49.149Z,4.63
2022-09-13T17:52:16.802Z,4.20
2022-09-13T17:54:46.420Z,4.90
2022-09-13T17:57:15.562Z,5.07
2022-09-13T17:59:43.104Z,4.33
2022-09-13T18:02:11.364Z,4.63
2022-09-13T18:04:38.963Z,5.10
2022-09-13T18:07:06.623Z,5.27
2022-09-13T18:09:34.663Z,4.83
2022-09-13T18:12:03.698Z,4.40
2022-09-13T18:14:32.663Z,4.83
2022-09-13T18:17:00.190Z,5.00
2022-09-13T18:19:44.747Z,4.93
2022-09-13T18:22:13.282Z,4.87
2022-09-13T18:24:40.861Z,5.03
2022-09-13T18:27:09.924Z,5.43
2022-09-13T18:29:37.569Z,5.27
2022-09-13T18:32:05.284Z,4.60
2022-09-13T18:34:32.833Z,5.67
2022-09-13T18:37:00.303Z,5.73
2022-09-13T18:39:27.900Z,5.90
2022-09-13T18:41:55.430Z,5.70
2022-09-13T18:44:24.320Z,5.40
2022-09-13T18:46:53.480Z,5.57
2022-09-13T18:49:20.970Z,5.93
2022-09-13T18:51:49.426Z,5.13
2022-09-13T18:54:18.615Z,5.60
2022-09-13T18:56:47.237Z,5.27
2022-09-13T18:59:15.432Z,5.20
2022-09-13T19:01:45.170Z,5.17
2022-09-13T19:04:14.602Z,5.20
2022-09-13T19:06:43.241Z,4.90
2022-09-13T19:09:11.539Z,5.03
2022-09-13T19:11:49.266Z,4.63
2022-09-13T19:14:18.107Z,4.73
2022-09-13T19:16:47.238Z,4.97
2022-09-13T19:19:14.883Z,5.20
2022-09-13T19:21:42.781Z,5.17
2022-09-13T19:24:17.784Z,5.20
2022-09-13T19:26:46.488Z,6.50
2022-09-13T19:29:15.150Z,5.93
2022-09-13T19:31:43.828Z,5.63
2022-09-13T19:34:14.653Z,5.17
2022-09-13T19:36:44.128Z,5.43
2022-09-13T19:39:11.897Z,5.47
2022-09-13T19:41:40.077Z,5.53
2022-09-13T19:44:08.372Z,5.40
2022-09-13T19:46:38.309Z,5.40
2022-09-13T19:49:06.699Z,5.40
2022-09-13T19:51:36.897Z,4.93
2022-09-13T19:54:05.681Z,5.00
2022-09-13T19:56:35.303Z,4.77
2022-09-13T19:59:03.321Z,4.93
2022-09-13T20:01:32.484Z,5.23
2022-09-13T20:04:01.719Z,5.00
2022-09-13T20:06:30.388Z,5.40
2022-09-13T20:09:00.877Z,4.77
2022-09-13T20:11:29.063Z,4.10
2022-09-13T20:13:59.040Z,4.10
2022-09-13T20:16:29.785Z,4.10
2022-09-13T20:18:58.106Z,4.33
2022-09-13T20:23:56.176Z,4.50
2022-09-13T20:26:26.752Z,4.40
2022-09-13T20:28:56.380Z,3.60
2022-09-13T20:31:26.728Z,3.75
2022-09-13T20:36:21.908Z,3.10
2022-09-13T20:38:49.928Z,3.03
2022-09-13T20:41:18.435Z,2.77
2022-09-13T20:43:48.855Z,2.50
2022-09-13T20:46:17.663Z,3.20
2022-09-13T20:48:45.606Z,3.13
2022-09-13T20:51:15.032Z,3.40
2022-09-13T20:53:42.789Z,3.00
2022-09-13T20:56:11.694Z,3.07
2022-09-13T20:58:39.569Z,3.53
2022-09-13T21:01:11.197Z,3.47
2022-09-13T21:03:41.298Z,3.97
2022-09-13T21:06:10.392Z,5.07
2022-09-13T21:08:43.104Z,5.57
2022-09-13T21:11:12.616Z,5.90
2022-09-13T21:13:42.035Z,6.10
2022-09-13T21:16:12.754Z,6.40
2022-09-13T21:18:41.150Z,6.40
2022-09-13T21:21:09.747Z,6.20
2022-09-13T21:23:40.232Z,5.70
2022-09-13T21:26:10.090Z,6.57
2022-09-13T21:28:38.781Z,6.40
2022-09-13T21:31:08.563Z,7.40
2022-09-13T21:33:37.521Z,7.30
2022-09-13T21:36:06.214Z,7.60
2022-09-13T21:38:36.253Z,6.73
2022-09-13T21:41:06.046Z,7.03
2022-09-13T21:43:34.072Z,7.13
2022-09-13T21:46:04.397Z,6.77
2022-09-13T21:48:32.754Z,7.47
2022-09-13T21:51:06.794Z,7.87
2022-09-13T21:53:36.482Z,7.00
2022-09-13T21:56:06.039Z,6.97
2022-09-13T21:58:33.777Z,6.70
2022-09-13T22:01:06.105Z,6.97
2022-09-13T22:03:36.427Z,6.73
2022-09-13T22:06:06.635Z,6.13
2022-09-13T22:08:36.566Z,6.13
2022-09-13T22:11:05.599Z,6.00
2022-09-13T22:13:34.664Z,6.53
2022-09-13T22:16:06.889Z,6.10
2022-09-13T22:18:35.040Z,5.67
2022-09-13T22:21:08.670Z,6.90
2022-09-13T22:23:36.527Z,6.47
2022-09-13T22:26:06.177Z,7.07
2022-09-13T22:28:33.787Z,7.83
2022-09-13T22:31:05.426Z,7.33
2022-09-13T22:33:33.387Z,8.10
2022-09-13T22:36:01.753Z,7.77
2022-09-13T22:38:31.356Z,8.07
2022-09-13T22:41:00.444Z,8.40
2022-09-13T22:43:28.289Z,7.73
2022-09-13T22:46:02.711Z,8.53
2022-09-13T22:48:30.526Z,8.33
2022-09-13T22:50:58.440Z,8.10
2022-09-13T22:53:26.692Z,8.90
2022-09-13T22:55:55.740Z,8.30
2022-09-13T22:58:23.267Z,7.73
2022-09-13T23:00:50.894Z,6.83
2022-09-13T23:03:18.599Z,5.23
2022-09-13T23:05:52.709Z,5.57
2022-09-13T23:08:20.323Z,5.13
2022-09-13T23:10:47.900Z,5.00
2022-09-13T23:13:16.845Z,4.10
2022-09-13T23:15:44.522Z,4.13
2022-09-13T23:18:12.102Z,3.90
2022-09-13T23:20:40.129Z,4.20
2022-09-13T23:23:08.475Z,4.90
2022-09-13T23:25:36.069Z,4.80
2022-09-13T23:28:03.799Z,4.47
2022-09-13T23:30:32.676Z,5.53
2022-09-13T23:33:00.367Z,4.53
2022-09-13T23:35:27.883Z,4.47
2022-09-13T23:37:55.433Z,4.40
2022-09-13T23:40:23.688Z,4.70
2022-09-13T23:42:51.292Z,4.53
2022-09-13T23:45:18.948Z,4.60
2022-09-13T23:47:47.919Z,4.33
2022-09-13T23:50:15.675Z,4.63
2022-09-13T23:52:43.322Z,4.87
2022-09-13T23:55:12.574Z,5.13
2022-09-13T23:57:40.133Z,5.30
